sensor_id;sensor_type;location;lat;lon;timestamp;temperature;humidity
29713;DHT22;16623;53.632;10.016;2022-12-18T00:01:59;-3.10;99.90
29713;DHT22;16623;53.632;10.016;2022-12-18T00:04:26;-3.70;99.90
29713;DHT22;16623;53.632;10.016;2022-12-18T00:06:52;-3.10;99.90
29713;DHT22;16623;53.632;10.016;2022-12-18T00:09:18;-3.10;99.90
29713;DHT22;16623;53.632;10.016;2022-12-18T00:11:43;-3.20;99.90
29713;DHT22;16623;53.632;10.016;2022-12-18T00:14:10;-3.20;99.90
29713;DHT22;16623;53.632;10.016;2022-12-18T00:16:37;-3.20;99.90
29713;DHT22;16623;53.632;10.016;2022-12-18T00:19:03;-3.20;99.90
29713;DHT22;16623;53.632;10.016;2022-12-18T00:21:30;-3.30;99.90
29713;DHT22;16623;53.632;10.016;2022-12-18T00:23:57;-3.30;99.90
29713;DHT22;16623;53.632;10.016;2022-12-18T00:26:30;-3.30;99.90
29713;DHT22;16623;53.632;10.016;2022-12-18T00:29:06;-3.30;99.90
29713;DHT22;16623;53.632;10.016;2022-12-18T00:31:32;-3.30;99.90
29713;DHT22;16623;53.632;10.016;2022-12-18T00:33:58;-3.30;99.90
29713;DHT22;16623;53.632;10.016;2022-12-18T00:36:26;-3.40;99.90
29713;DHT22;16623;53.632;10.016;2022-12-18T00:38:57;-3.40;99.90
29713;DHT22;16623;53.632;10.016;2022-12-18T00:41:23;-3.40;99.90
29713;DHT22;16623;53.632;10.016;2022-12-18T00:44:10;-3.50;99.90
29713;DHT22;16623;53.632;10.016;2022-12-18T00:46:37;-3.50;99.90
29713;DHT22;16623;53.632;10.016;2022-12-18T00:49:05;-3.50;99.90
29713;DHT22;16623;53.632;10.016;2022-12-18T00:51:31;-3.50;99.90
29713;DHT22;16623;53.632;10.016;2022-12-18T00:53:57;-3.50;99.90
29713;DHT22;16623;53.632;10.016;2022-12-18T00:56:23;-3.50;99.90
29713;DHT22;16623;53.632;10.016;2022-12-18T00:58:49;-3.50;99.90
29713;DHT22;16623;53.632;10.016;2022-12-18T01:01:15;-3.50;99.90
29713;DHT22;16623;53.632;10.016;2022-12-18T01:03:41;-3.50;99.90
29713;DHT22;16623;53.632;10.016;2022-12-18T01:06:07;-3.60;99.90
29713;DHT22;16623;53.632;10.016;2022-12-18T01:08:34;-3.60;99.90
29713;DHT22;16623;53.632;10.016;2022-12-18T01:10:59;-3.70;99.90
29713;DHT22;16623;53.632;10.016;2022-12-18T01:13:25;-3.70;99.90
29713;DHT22;16623;53.632;10.016;2022-12-18T01:15:51;-3.70;99.90
29713;DHT22;16623;53.632;10.016;2022-12-18T01:18:16;-3.70;99.90
29713;DHT22;16623;53.632;10.016;2022-12-18T01:20:42;-3.70;99.90
29713;DHT22;16623;53.632;10.016;2022-12-18T01:23:08;-3.70;99.90
29713;DHT22;16623;53.632;10.016;2022-12-18T01:25:36;-3.70;99.90
29713;DHT22;16623;53.632;10.016;2022-12-18T01:28:01;-3.70;99.90
29713;DHT22;16623;53.632;10.016;2022-12-18T01:30:27;-3.70;99.90
29713;DHT22;16623;53.632;10.016;2022-12-18T01:32:53;-3.70;99.90
29713;DHT22;16623;53.632;10.016;2022-12-18T01:35:18;-3.70;99.90
29713;DHT22;16623;53.632;10.016;2022-12-18T01:37:44;-3.80;99.90
29713;DHT22;16623;53.632;10.016;2022-12-18T01:40:10;-3.70;99.90
29713;DHT22;16623;53.632;10.016;2022-12-18T01:42:35;-3.80;99.90
29713;DHT22;16623;53.632;10.016;2022-12-18T01:47:46;-3.80;99.90
29713;DHT22;16623;53.632;10.016;2022-12-18T01:50:21;-3.80;99.90
29713;DHT22;16623;53.632;10.016;2022-12-18T01:52:50;-3.80;99.90
29713;DHT22;16623;53.632;10.016;2022-12-18T01:55:19;-3.80;99.90
29713;DHT22;16623;53.632;10.016;2022-12-18T01:57:46;-3.80;99.90
29713;DHT22;16623;53.632;10.016;2022-12-18T02:00:15;-3.80;99.90
29713;DHT22;16623;53.632;10.016;2022-12-18T02:02:42;-3.90;99.90
29713;DHT22;16623;53.632;10.016;2022-12-18T02:05:10;-4.00;99.90
29713;DHT22;16623;53.632;10.016;2022-12-18T02:07:58;-3.80;99.90
29713;DHT22;16623;53.632;10.016;2022-12-18T02:16:09;-4.00;99.90
29713;DHT22;16623;53.632;10.016;2022-12-18T02:18:42;-4.00;99.90
29713;DHT22;16623;53.632;10.016;2022-12-18T02:21:28;-4.00;99.90
29713;DHT22;16623;53.632;10.016;2022-12-18T02:24:20;-4.00;99.90
29713;DHT22;16623;53.632;10.016;2022-12-18T02:26:53;-4.00;99.90
29713;DHT22;16623;53.632;10.016;2022-12-18T02:29:44;-4.00;99.90
29713;DHT22;16623;53.632;10.016;2022-12-18T02:32:16;-3.90;99.90
29713;DHT22;16623;53.632;10.016;2022-12-18T02:34:44;-4.00;99.90
29713;DHT22;16623;53.632;10.016;2022-12-18T02:37:13;-4.10;99.90
29713;DHT22;16623;53.632;10.016;2022-12-18T02:39:42;-4.00;99.90
29713;DHT22;16623;53.632;10.016;2022-12-18T02:42:08;-4.00;99.90
29713;DHT22;16623;53.632;10.016;2022-12-18T02:44:45;-4.00;99.90
29713;DHT22;16623;53.632;10.016;2022-12-18T02:47:16;-4.10;99.90
29713;DHT22;16623;53.632;10.016;2022-12-18T02:49:58;-4.00;99.90
29713;DHT22;16623;53.632;10.016;2022-12-18T02:52:39;-5.40;99.90
29713;DHT22;16623;53.632;10.016;2022-12-18T02:55:28;-4.00;99.90
29713;DHT22;16623;53.632;10.016;2022-12-18T02:58:04;-4.10;99.90
29713;DHT22;16623;53.632;10.016;2022-12-18T03:00:42;-4.00;99.90
29713;DHT22;16623;53.632;10.016;2022-12-18T03:03:18;-4.00;99.90
29713;DHT22;16623;53.632;10.016;2022-12-18T03:05:55;-4.10;99.90
29713;DHT22;16623;53.632;10.016;2022-12-18T03:08:26;-4.10;99.90
29713;DHT22;16623;53.632;10.016;2022-12-18T03:11:03;-4.10;99.90
29713;DHT22;16623;53.632;10.016;2022-12-18T03:13:54;-4.00;99.90
29713;DHT22;16623;53.632;10.016;2022-12-18T03:16:25;-4.00;99.90
29713;DHT22;16623;53.632;10.016;2022-12-18T03:18:58;-4.10;99.90
29713;DHT22;16623;53.632;10.016;2022-12-18T03:21:29;-4.10;99.90
29713;DHT22;16623;53.632;10.016;2022-12-18T03:23:57;-4.10;99.90
29713;DHT22;16623;53.632;10.016;2022-12-18T03:26:25;-4.10;99.90
29713;DHT22;16623;53.632;10.016;2022-12-18T03:28:54;-4.10;99.90
29713;DHT22;16623;53.632;10.016;2022-12-18T03:31:23;-4.10;99.90
29713;DHT22;16623;53.632;10.016;2022-12-18T03:33:57;-4.10;99.90
29713;DHT22;16623;53.632;10.016;2022-12-18T03:36:25;-4.10;99.90
29713;DHT22;16623;53.632;10.016;2022-12-18T03:38:51;-4.10;99.90
29713;DHT22;16623;53.632;10.016;2022-12-18T03:41:31;-4.10;99.90
29713;DHT22;16623;53.632;10.016;2022-12-18T03:44:28;-4.20;99.90
29713;DHT22;16623;53.632;10.016;2022-12-18T03:46:59;-4.20;99.90
29713;DHT22;16623;53.632;10.016;2022-12-18T03:49:50;-4.20;99.90
29713;DHT22;16623;53.632;10.016;2022-12-18T03:52:41;-4.30;99.90
29713;DHT22;16623;53.632;10.016;2022-12-18T03:55:09;-4.30;99.90
29713;DHT22;16623;53.632;10.016;2022-12-18T03:57:35;-4.30;99.90
29713;DHT22;16623;53.632;10.016;2022-12-18T04:00:13;-4.30;99.90
29713;DHT22;16623;53.632;10.016;2022-12-18T04:02:44;-4.40;99.90
29713;DHT22;16623;53.632;10.016;2022-12-18T04:05:12;-4.40;99.90
29713;DHT22;16623;53.632;10.016;2022-12-18T04:07:38;-4.40;99.90
29713;DHT22;16623;53.632;10.016;2022-12-18T04:10:07;-4.40;99.90
29713;DHT22;16623;53.632;10.016;2022-12-18T04:12:33;-4.40;99.90
29713;DHT22;16623;53.632;10.016;2022-12-18T04:14:58;-4.40;99.90
29713;DHT22;16623;53.632;10.016;2022-12-18T04:17:24;-4.40;99.90
29713;DHT22;16623;53.632;10.016;2022-12-18T04:19:50;-4.50;99.90
29713;DHT22;16623;53.632;10.016;2022-12-18T04:22:15;-4.50;99.90
29713;DHT22;16623;53.632;10.016;2022-12-18T04:24:41;-4.50;99.90
29713;DHT22;16623;53.632;10.016;2022-12-18T04:27:07;-4.50;99.90
29713;DHT22;16623;53.632;10.016;2022-12-18T04:29:32;-4.60;99.90
29713;DHT22;16623;53.632;10.016;2022-12-18T04:31:58;-4.60;99.90
29713;DHT22;16623;53.632;10.016;2022-12-18T04:34:23;-4.50;99.90
29713;DHT22;16623;53.632;10.016;2022-12-18T04:36:49;-4.50;99.90
29713;DHT22;16623;53.632;10.016;2022-12-18T04:39:14;-4.50;99.90
29713;DHT22;16623;53.632;10.016;2022-12-18T04:41:43;-4.60;99.90
29713;DHT22;16623;53.632;10.016;2022-12-18T04:44:08;-4.20;99.90
29713;DHT22;16623;53.632;10.016;2022-12-18T04:46:34;-4.50;99.90
29713;DHT22;16623;53.632;10.016;2022-12-18T04:48:59;-4.60;99.90
29713;DHT22;16623;53.632;10.016;2022-12-18T04:51:25;-4.60;99.90
29713;DHT22;16623;53.632;10.016;2022-12-18T04:53:50;-4.00;99.90
29713;DHT22;16623;53.632;10.016;2022-12-18T04:56:16;-4.50;99.90
29713;DHT22;16623;53.632;10.016;2022-12-18T04:58:43;-4.50;99.90
29713;DHT22;16623;53.632;10.016;2022-12-18T05:01:10;-4.60;99.90
29713;DHT22;16623;53.632;10.016;2022-12-18T05:03:36;-4.60;99.90
29713;DHT22;16623;53.632;10.016;2022-12-18T05:06:02;-4.60;99.90
29713;DHT22;16623;53.632;10.016;2022-12-18T05:08:29;-4.70;99.90
29713;DHT22;16623;53.632;10.016;2022-12-18T05:11:06;-4.60;99.90
29713;DHT22;16623;53.632;10.016;2022-12-18T05:13:33;-4.60;99.90
29713;DHT22;16623;53.632;10.016;2022-12-18T05:15:58;-4.70;99.90
29713;DHT22;16623;53.632;10.016;2022-12-18T05:18:25;-4.70;99.90
29713;DHT22;16623;53.632;10.016;2022-12-18T05:20:51;-4.70;99.90
29713;DHT22;16623;53.632;10.016;2022-12-18T05:23:17;-4.60;99.90
29713;DHT22;16623;53.632;10.016;2022-12-18T05:28:22;-4.70;99.90
29713;DHT22;16623;53.632;10.016;2022-12-18T05:30:54;-4.60;99.90
29713;DHT22;16623;53.632;10.016;2022-12-18T05:33:21;-4.70;99.90
29713;DHT22;16623;53.632;10.016;2022-12-18T05:35:52;-4.70;99.90
29713;DHT22;16623;53.632;10.016;2022-12-18T05:38:18;-4.70;99.90
29713;DHT22;16623;53.632;10.016;2022-12-18T05:40:43;-4.70;99.90
29713;DHT22;16623;53.632;10.016;2022-12-18T05:43:10;-4.60;99.90
29713;DHT22;16623;53.632;10.016;2022-12-18T05:45:38;-4.70;99.90
29713;DHT22;16623;53.632;10.016;2022-12-18T05:48:04;-4.80;99.90
29713;DHT22;16623;53.632;10.016;2022-12-18T05:50:30;-4.80;99.90
29713;DHT22;16623;53.632;10.016;2022-12-18T05:52:55;-4.90;99.90
29713;DHT22;16623;53.632;10.016;2022-12-18T05:55:21;-4.90;99.90
29713;DHT22;16623;53.632;10.016;2022-12-18T05:57:46;-4.90;99.90
29713;DHT22;16623;53.632;10.016;2022-12-18T06:00:12;-4.80;99.90
29713;DHT22;16623;53.632;10.016;2022-12-18T06:02:38;-4.80;99.90
29713;DHT22;16623;53.632;10.016;2022-12-18T06:05:05;-4.80;99.90
29713;DHT22;16623;53.632;10.016;2022-12-18T06:07:30;-4.80;99.90
29713;DHT22;16623;53.632;10.016;2022-12-18T06:09:56;-4.80;99.90
29713;DHT22;16623;53.632;10.016;2022-12-18T06:12:21;-4.70;99.90
29713;DHT22;16623;53.632;10.016;2022-12-18T06:14:47;-4.90;99.90
29713;DHT22;16623;53.632;10.016;2022-12-18T06:17:12;-4.90;99.90
29713;DHT22;16623;53.632;10.016;2022-12-18T06:19:38;-4.80;99.90
29713;DHT22;16623;53.632;10.016;2022-12-18T06:22:03;-4.80;99.90
29713;DHT22;16623;53.632;10.016;2022-12-18T06:24:29;-5.50;99.90
29713;DHT22;16623;53.632;10.016;2022-12-18T06:26:55;-4.90;99.90
29713;DHT22;16623;53.632;10.016;2022-12-18T06:29:20;-4.90;99.90
29713;DHT22;16623;53.632;10.016;2022-12-18T06:31:52;-4.80;99.90
29713;DHT22;16623;53.632;10.016;2022-12-18T06:34:18;-4.80;99.90
29713;DHT22;16623;53.632;10.016;2022-12-18T06:36:43;-4.80;99.90
29713;DHT22;16623;53.632;10.016;2022-12-18T06:39:08;-4.90;99.90
29713;DHT22;16623;53.632;10.016;2022-12-18T06:41:34;-4.80;99.90
29713;DHT22;16623;53.632;10.016;2022-12-18T06:43:59;-4.90;99.90
29713;DHT22;16623;53.632;10.016;2022-12-18T06:46:25;-4.80;99.90
29713;DHT22;16623;53.632;10.016;2022-12-18T06:48:50;-4.90;99.90
29713;DHT22;16623;53.632;10.016;2022-12-18T06:51:18;-4.90;99.90
29713;DHT22;16623;53.632;10.016;2022-12-18T06:53:43;-4.90;99.90
29713;DHT22;16623;53.632;10.016;2022-12-18T06:56:09;-5.00;99.90
29713;DHT22;16623;53.632;10.016;2022-12-18T06:58:35;-4.90;99.90
29713;DHT22;16623;53.632;10.016;2022-12-18T07:01:01;-4.90;99.90
29713;DHT22;16623;53.632;10.016;2022-12-18T07:03:27;-4.90;99.90
29713;DHT22;16623;53.632;10.016;2022-12-18T07:05:53;-4.90;99.90
29713;DHT22;16623;53.632;10.016;2022-12-18T07:08:19;-5.00;99.90
29713;DHT22;16623;53.632;10.016;2022-12-18T07:10:45;-5.00;99.90
29713;DHT22;16623;53.632;10.016;2022-12-18T07:13:10;-4.90;99.90
29713;DHT22;16623;53.632;10.016;2022-12-18T07:15:36;-5.10;99.90
29713;DHT22;16623;53.632;10.016;2022-12-18T07:18:02;-5.00;99.90
29713;DHT22;16623;53.632;10.016;2022-12-18T07:20:27;-5.10;99.90
29713;DHT22;16623;53.632;10.016;2022-12-18T07:22:53;-5.00;99.90
29713;DHT22;16623;53.632;10.016;2022-12-18T07:25:18;-5.00;99.90
29713;DHT22;16623;53.632;10.016;2022-12-18T07:27:44;-5.10;99.90
29713;DHT22;16623;53.632;10.016;2022-12-18T07:30:10;-5.00;99.90
29713;DHT22;16623;53.632;10.016;2022-12-18T07:32:36;-5.10;99.90
29713;DHT22;16623;53.632;10.016;2022-12-18T07:35:01;-5.00;99.90
29713;DHT22;16623;53.632;10.016;2022-12-18T07:37:27;-5.00;99.90
29713;DHT22;16623;53.632;10.016;2022-12-18T07:39:52;-4.90;99.90
29713;DHT22;16623;53.632;10.016;2022-12-18T07:42:18;-5.00;99.90
29713;DHT22;16623;53.632;10.016;2022-12-18T07:44:56;-4.90;99.90
29713;DHT22;16623;53.632;10.016;2022-12-18T07:47:21;-5.00;99.90
29713;DHT22;16623;53.632;10.016;2022-12-18T07:49:47;-5.00;99.90
29713;DHT22;16623;53.632;10.016;2022-12-18T07:52:13;-4.90;99.90
29713;DHT22;16623;53.632;10.016;2022-12-18T07:54:38;-3.70;99.90
29713;DHT22;16623;53.632;10.016;2022-12-18T07:57:04;-4.90;99.90
29713;DHT22;16623;53.632;10.016;2022-12-18T07:59:30;-4.80;99.90
29713;DHT22;16623;53.632;10.016;2022-12-18T08:01:55;-3.80;99.90
29713;DHT22;16623;53.632;10.016;2022-12-18T08:04:21;-4.80;99.90
29713;DHT22;16623;53.632;10.016;2022-12-18T08:06:46;-4.70;99.90
29713;DHT22;16623;53.632;10.016;2022-12-18T08:09:12;-4.80;99.90
29713;DHT22;16623;53.632;10.016;2022-12-18T08:11:37;-4.70;99.90
29713;DHT22;16623;53.632;10.016;2022-12-18T08:14:03;-4.80;99.90
29713;DHT22;16623;53.632;10.016;2022-12-18T08:16:29;-4.70;99.90
29713;DHT22;16623;53.632;10.016;2022-12-18T08:18:55;-4.70;99.90
29713;DHT22;16623;53.632;10.016;2022-12-18T08:21:27;-4.60;99.90
29713;DHT22;16623;53.632;10.016;2022-12-18T08:23:57;-4.50;99.90
29713;DHT22;16623;53.632;10.016;2022-12-18T08:26:24;-4.60;99.90
29713;DHT22;16623;53.632;10.016;2022-12-18T08:28:51;-4.60;99.90
29713;DHT22;16623;53.632;10.016;2022-12-18T08:31:17;-4.60;99.90
29713;DHT22;16623;53.632;10.016;2022-12-18T08:33:43;-4.50;99.90
29713;DHT22;16623;53.632;10.016;2022-12-18T08:36:09;-4.50;99.90
29713;DHT22;16623;53.632;10.016;2022-12-18T08:38:35;-4.50;99.90
29713;DHT22;16623;53.632;10.016;2022-12-18T08:41:03;-4.40;99.90
29713;DHT22;16623;53.632;10.016;2022-12-18T08:43:29;-4.40;99.90
29713;DHT22;16623;53.632;10.016;2022-12-18T08:46:19;-4.30;99.90
29713;DHT22;16623;53.632;10.016;2022-12-18T08:48:46;-4.30;99.90
29713;DHT22;16623;53.632;10.016;2022-12-18T08:51:12;-4.20;99.90
29713;DHT22;16623;53.632;10.016;2022-12-18T08:53:38;-4.20;99.90
29713;DHT22;16623;53.632;10.016;2022-12-18T08:56:04;-4.20;99.90
29713;DHT22;16623;53.632;10.016;2022-12-18T08:58:30;-4.10;99.90
29713;DHT22;16623;53.632;10.016;2022-12-18T09:01:03;-4.10;99.90
29713;DHT22;16623;53.632;10.016;2022-12-18T09:03:29;-4.10;99.90
29713;DHT22;16623;53.632;10.016;2022-12-18T09:05:54;-4.10;99.90
29713;DHT22;16623;53.632;10.016;2022-12-18T09:08:20;-4.00;99.90
29713;DHT22;16623;53.632;10.016;2022-12-18T09:10:47;-4.00;99.90
29713;DHT22;16623;53.632;10.016;2022-12-18T09:13:14;-4.00;99.90
29713;DHT22;16623;53.632;10.016;2022-12-18T09:15:42;-3.90;99.90
29713;DHT22;16623;53.632;10.016;2022-12-18T09:18:08;-3.90;99.90
29713;DHT22;16623;53.632;10.016;2022-12-18T09:20:35;-3.80;99.90
29713;DHT22;16623;53.632;10.016;2022-12-18T09:23:00;-3.80;99.90
29713;DHT22;16623;53.632;10.016;2022-12-18T09:25:28;-3.70;99.90
29713;DHT22;16623;53.632;10.016;2022-12-18T09:27:59;-3.60;99.90
29713;DHT22;16623;53.632;10.016;2022-12-18T09:30:26;-3.60;99.90
29713;DHT22;16623;53.632;10.016;2022-12-18T09:32:51;-3.60;99.90
29713;DHT22;16623;53.632;10.016;2022-12-18T09:35:17;-3.50;99.90
29713;DHT22;16623;53.632;10.016;2022-12-18T09:37:43;-3.60;99.90
29713;DHT22;16623;53.632;10.016;2022-12-18T09:40:21;-3.40;99.90
29713;DHT22;16623;53.632;10.016;2022-12-18T09:42:57;-3.40;99.90
29713;DHT22;16623;53.632;10.016;2022-12-18T09:45:25;-3.30;99.90
29713;DHT22;16623;53.632;10.016;2022-12-18T09:47:52;-3.20;99.90
29713;DHT22;16623;53.632;10.016;2022-12-18T09:50:30;-3.20;99.90
29713;DHT22;16623;53.632;10.016;2022-12-18T09:53:02;-3.00;99.90
29713;DHT22;16623;53.632;10.016;2022-12-18T09:55:38;-3.00;99.90
29713;DHT22;16623;53.632;10.016;2022-12-18T09:58:12;-3.10;99.90
29713;DHT22;16623;53.632;10.016;2022-12-18T10:00:43;-3.00;99.90
29713;DHT22;16623;53.632;10.016;2022-12-18T10:03:13;-3.10;99.90
29713;DHT22;16623;53.632;10.016;2022-12-18T10:08:25;-3.00;99.90
29713;DHT22;16623;53.632;10.016;2022-12-18T10:11:13;-2.90;99.90
29713;DHT22;16623;53.632;10.016;2022-12-18T10:16:12;-2.80;99.90
29713;DHT22;16623;53.632;10.016;2022-12-18T10:21:39;-2.70;99.90
29713;DHT22;16623;53.632;10.016;2022-12-18T10:24:25;-2.60;99.90
29713;DHT22;16623;53.632;10.016;2022-12-18T10:26:52;-2.70;99.90
29713;DHT22;16623;53.632;10.016;2022-12-18T10:29:21;-2.60;99.90
29713;DHT22;16623;53.632;10.016;2022-12-18T10:31:46;-3.30;99.90
29713;DHT22;16623;53.632;10.016;2022-12-18T10:34:13;-2.60;99.90
29713;DHT22;16623;53.632;10.016;2022-12-18T10:36:39;-2.60;99.90
29713;DHT22;16623;53.632;10.016;2022-12-18T10:39:20;-2.50;99.90
29713;DHT22;16623;53.632;10.016;2022-12-18T10:41:47;-2.50;99.90
29713;DHT22;16623;53.632;10.016;2022-12-18T10:44:21;-2.50;99.90
29713;DHT22;16623;53.632;10.016;2022-12-18T10:46:54;-2.40;99.90
29713;DHT22;16623;53.632;10.016;2022-12-18T10:49:29;-2.40;99.90
29713;DHT22;16623;53.632;10.016;2022-12-18T10:52:15;-2.30;99.90
29713;DHT22;16623;53.632;10.016;2022-12-18T10:54:59;-2.30;99.90
29713;DHT22;16623;53.632;10.016;2022-12-18T10:57:39;-2.20;99.90
29713;DHT22;16623;53.632;10.016;2022-12-18T11:00:26;-2.10;99.90
29713;DHT22;16623;53.632;10.016;2022-12-18T11:02:53;-2.00;99.90
29713;DHT22;16623;53.632;10.016;2022-12-18T11:05:34;-2.00;99.90
29713;DHT22;16623;53.632;10.016;2022-12-18T11:08:02;-1.80;99.90
29713;DHT22;16623;53.632;10.016;2022-12-18T11:10:49;-1.70;99.90
29713;DHT22;16623;53.632;10.016;2022-12-18T11:13:21;-1.70;99.90
29713;DHT22;16623;53.632;10.016;2022-12-18T11:15:48;-1.60;99.90
29713;DHT22;16623;53.632;10.016;2022-12-18T11:20:42;-1.70;99.90
29713;DHT22;16623;53.632;10.016;2022-12-18T11:23:12;-1.60;99.90
29713;DHT22;16623;53.632;10.016;2022-12-18T11:25:39;-1.50;99.90
29713;DHT22;16623;53.632;10.016;2022-12-18T11:28:27;-1.50;99.90
29713;DHT22;16623;53.632;10.016;2022-12-18T11:31:17;-1.50;99.90
29713;DHT22;16623;53.632;10.016;2022-12-18T11:36:14;-1.50;99.90
29713;DHT22;16623;53.632;10.016;2022-12-18T11:38:42;-1.40;99.90
29713;DHT22;16623;53.632;10.016;2022-12-18T11:41:23;-1.40;99.90
29713;DHT22;16623;53.632;10.016;2022-12-18T11:44:15;-1.40;99.90
29713;DHT22;16623;53.632;10.016;2022-12-18T11:46:48;-1.40;99.90
29713;DHT22;16623;53.632;10.016;2022-12-18T11:49:34;-1.40;99.90
29713;DHT22;16623;53.632;10.016;2022-12-18T11:52:16;-1.40;99.90
29713;DHT22;16623;53.632;10.016;2022-12-18T11:54:44;-1.30;99.90
29713;DHT22;16623;53.632;10.016;2022-12-18T11:57:34;-1.30;99.90
29713;DHT22;16623;53.632;10.016;2022-12-18T12:00:11;-1.40;99.90
29713;DHT22;16623;53.632;10.016;2022-12-18T12:08:35;-1.30;99.90
29713;DHT22;16623;53.632;10.016;2022-12-18T12:16:37;-1.30;99.90
29713;DHT22;16623;53.632;10.016;2022-12-18T12:19:27;-1.20;99.90
29713;DHT22;16623;53.632;10.016;2022-12-18T12:22:39;-1.30;99.90
29713;DHT22;16623;53.632;10.016;2022-12-18T12:25:19;-1.20;99.90
29713;DHT22;16623;53.632;10.016;2022-12-18T12:28:06;-1.30;99.90
29713;DHT22;16623;53.632;10.016;2022-12-18T12:33:44;-1.20;99.90
29713;DHT22;16623;53.632;10.016;2022-12-18T12:36:31;-1.10;99.90
29713;DHT22;16623;53.632;10.016;2022-12-18T12:39:06;-1.10;99.90
29713;DHT22;16623;53.632;10.016;2022-12-18T12:41:34;-1.00;99.90
29713;DHT22;16623;53.632;10.016;2022-12-18T12:44:25;-1.00;99.90
29713;DHT22;16623;53.632;10.016;2022-12-18T12:46:56;-1.00;99.90
29713;DHT22;16623;53.632;10.016;2022-12-18T12:49:26;-1.00;99.90
29713;DHT22;16623;53.632;10.016;2022-12-18T12:52:10;-0.90;99.90
29713;DHT22;16623;53.632;10.016;2022-12-18T12:54:37;-0.90;99.90
29713;DHT22;16623;53.632;10.016;2022-12-18T12:57:19;-2.70;99.90
29713;DHT22;16623;53.632;10.016;2022-12-18T13:02:51;-0.70;99.90
29713;DHT22;16623;53.632;10.016;2022-12-18T13:05:28;-0.70;99.90
29713;DHT22;16623;53.632;10.016;2022-12-18T13:08:08;-0.70;99.90
29713;DHT22;16623;53.632;10.016;2022-12-18T13:10:41;-0.60;99.90
29713;DHT22;16623;53.632;10.016;2022-12-18T13:13:09;-0.60;99.90
29713;DHT22;16623;53.632;10.016;2022-12-18T13:15:48;-0.60;99.90
29713;DHT22;16623;53.632;10.016;2022-12-18T13:18:23;-0.60;99.90
29713;DHT22;16623;53.632;10.016;2022-12-18T13:21:14;-0.50;99.90
29713;DHT22;16623;53.632;10.016;2022-12-18T13:23:40;-0.50;99.90
29713;DHT22;16623;53.632;10.016;2022-12-18T13:34:22;-0.40;99.90
29713;DHT22;16623;53.632;10.016;2022-12-18T13:36:49;-0.50;99.90
29713;DHT22;16623;53.632;10.016;2022-12-18T13:41:47;-0.70;99.90
29713;DHT22;16623;53.632;10.016;2022-12-18T13:44:28;-0.70;99.90
29713;DHT22;16623;53.632;10.016;2022-12-18T13:46:55;-0.90;99.90
29713;DHT22;16623;53.632;10.016;2022-12-18T13:49:38;-0.90;99.90
29713;DHT22;16623;53.632;10.016;2022-12-18T13:52:20;-1.00;99.90
29713;DHT22;16623;53.632;10.016;2022-12-18T13:54:50;-1.10;99.90
29713;DHT22;16623;53.632;10.016;2022-12-18T13:57:34;-1.10;99.90
29713;DHT22;16623;53.632;10.016;2022-12-18T14:02:47;-1.30;99.90
29713;DHT22;16623;53.632;10.016;2022-12-18T14:05:28;-1.30;99.90
29713;DHT22;16623;53.632;10.016;2022-12-18T14:07:54;-1.30;99.90
29713;DHT22;16623;53.632;10.016;2022-12-18T14:10:21;-1.30;99.90
29713;DHT22;16623;53.632;10.016;2022-12-18T14:12:48;-1.40;99.90
29713;DHT22;16623;53.632;10.016;2022-12-18T14:17:59;-1.40;99.90
29713;DHT22;16623;53.632;10.016;2022-12-18T14:20:27;-1.30;99.90
29713;DHT22;16623;53.632;10.016;2022-12-18T14:22:54;-1.50;99.90
29713;DHT22;16623;53.632;10.016;2022-12-18T14:25:23;-1.50;99.90
29713;DHT22;16623;53.632;10.016;2022-12-18T14:33:02;-1.80;99.90
29713;DHT22;16623;53.632;10.016;2022-12-18T14:35:28;-1.70;99.90
29713;DHT22;16623;53.632;10.016;2022-12-18T14:38:08;-1.70;99.90
29713;DHT22;16623;53.632;10.016;2022-12-18T14:40:33;-1.80;99.90
29713;DHT22;16623;53.632;10.016;2022-12-18T14:42:59;-1.80;99.90
29713;DHT22;16623;53.632;10.016;2022-12-18T14:45:40;-1.90;99.90
29713;DHT22;16623;53.632;10.016;2022-12-18T14:48:09;-2.00;99.90
29713;DHT22;16623;53.632;10.016;2022-12-18T14:50:37;-2.00;99.90
29713;DHT22;16623;53.632;10.016;2022-12-18T14:53:03;-2.00;99.90
29713;DHT22;16623;53.632;10.016;2022-12-18T14:55:29;-2.00;99.90
29713;DHT22;16623;53.632;10.016;2022-12-18T14:57:55;-1.90;99.90
29713;DHT22;16623;53.632;10.016;2022-12-18T15:00:23;-1.90;99.90
29713;DHT22;16623;53.632;10.016;2022-12-18T15:02:53;-1.90;99.90
29713;DHT22;16623;53.632;10.016;2022-12-18T15:05:30;-2.00;99.90
29713;DHT22;16623;53.632;10.016;2022-12-18T15:07:58;-2.00;99.90
29713;DHT22;16623;53.632;10.016;2022-12-18T15:10:29;-2.00;99.90
29713;DHT22;16623;53.632;10.016;2022-12-18T15:18:04;-2.10;99.90
29713;DHT22;16623;53.632;10.016;2022-12-18T15:20:33;-2.10;99.90
29713;DHT22;16623;53.632;10.016;2022-12-18T15:23:04;-2.20;99.90
29713;DHT22;16623;53.632;10.016;2022-12-18T15:25:35;-2.20;99.90
29713;DHT22;16623;53.632;10.016;2022-12-18T15:28:17;-2.20;99.90
29713;DHT22;16623;53.632;10.016;2022-12-18T15:31:05;-2.20;99.90
29713;DHT22;16623;53.632;10.016;2022-12-18T15:33:36;-2.20;99.90
29713;DHT22;16623;53.632;10.016;2022-12-18T15:36:11;-2.20;99.90
29713;DHT22;16623;53.632;10.016;2022-12-18T15:38:36;-2.20;99.90
29713;DHT22;16623;53.632;10.016;2022-12-18T15:41:02;-2.30;99.90
29713;DHT22;16623;53.632;10.016;2022-12-18T15:43:28;-2.40;99.90
29713;DHT22;16623;53.632;10.016;2022-12-18T15:46:11;-2.30;99.90
29713;DHT22;16623;53.632;10.016;2022-12-18T15:49:03;-2.40;99.90
29713;DHT22;16623;53.632;10.016;2022-12-18T15:51:34;-2.30;99.90
29713;DHT22;16623;53.632;10.016;2022-12-18T15:54:03;-2.40;99.90
29713;DHT22;16623;53.632;10.016;2022-12-18T15:56:30;-2.40;99.90
29713;DHT22;16623;53.632;10.016;2022-12-18T15:59:17;-2.30;99.90
29713;DHT22;16623;53.632;10.016;2022-12-18T16:01:45;-2.30;99.90
29713;DHT22;16623;53.632;10.016;2022-12-18T16:04:13;-2.30;99.90
29713;DHT22;16623;53.632;10.016;2022-12-18T16:06:39;-2.30;99.90
29713;DHT22;16623;53.632;10.016;2022-12-18T16:09:05;-2.40;99.90
29713;DHT22;16623;53.632;10.016;2022-12-18T16:11:32;-2.40;99.90
29713;DHT22;16623;53.632;10.016;2022-12-18T16:16:36;-2.30;99.90
29713;DHT22;16623;53.632;10.016;2022-12-18T16:19:02;-1.70;99.90
29713;DHT22;16623;53.632;10.016;2022-12-18T16:21:28;-0.50;99.90
29713;DHT22;16623;53.632;10.016;2022-12-18T16:23:53;-2.10;99.90
29713;DHT22;16623;53.632;10.016;2022-12-18T16:26:19;-2.20;99.90
29713;DHT22;16623;53.632;10.016;2022-12-18T16:28:44;-2.30;99.90
29713;DHT22;16623;53.632;10.016;2022-12-18T16:31:10;-2.20;99.90
29713;DHT22;16623;53.632;10.016;2022-12-18T16:33:35;-2.30;99.90
29713;DHT22;16623;53.632;10.016;2022-12-18T16:36:00;-2.40;99.90
29713;DHT22;16623;53.632;10.016;2022-12-18T16:38:26;-2.40;99.90
29713;DHT22;16623;53.632;10.016;2022-12-18T16:40:52;-2.40;99.90
29713;DHT22;16623;53.632;10.016;2022-12-18T16:43:36;-2.50;99.90
29713;DHT22;16623;53.632;10.016;2022-12-18T16:46:01;-2.50;99.90